Time,TemperatureF,DewpointF,PressureIn,WindDirection,WindDirectionDegrees,WindSpeedMPH,WindSpeedGustMPH,Humidity,HourlyPrecipIn,Conditions,Clouds,dailyrainin,SoftwareType,DateUTC
2013-03-22 00:00:00,56.3,52.8,29.81,South,180,0.0,-999.0,88,0.00,,,0.00,Wunderground v.1.15,2013-03-22 07:00:00,
2013-03-22 00:05:00,56.4,52.9,29.82,South,180,0.0,-999.0,88,0.00,,,0.00,Wunderground v.1.15,2013-03-22 07:05:00,
2013-03-22 00:10:00,56.4,52.9,29.82,South,180,0.0,-999.0,88,0.00,,,0.00,Wunderground v.1.15,2013-03-22 07:10:00,
2013-03-22 00:15:00,56.5,53.0,29.81,South,180,0.0,-999.0,88,0.00,,,0.00,Wunderground v.1.15,2013-03-22 07:15:00,
2013-03-22 00:20:00,56.5,53.0,29.81,South,180,0.0,-999.0,88,0.00,,,0.00,Wunderground v.1.15,2013-03-22 07:20:00,
2013-03-22 00:25:00,56.4,52.9,29.80,South,180,0.0,-999.0,88,0.00,,,0.00,Wunderground v.1.15,2013-03-22 07:25:00,
2013-03-22 00:30:00,56.4,52.9,29.80,South,180,0.0,-999.0,88,0.00,,,0.00,Wunderground v.1.15,2013-03-22 07:30:00,
2013-03-22 00:35:00,56.1,52.6,29.80,South,180,0.0,-999.0,88,0.00,,,0.00,Wunderground v.1.15,2013-03-22 07:35:00,
2013-03-22 00:40:00,56.1,52.6,29.80,South,180,0.0,-999.0,88,0.00,,,0.00,Wunderground v.1.15,2013-03-22 07:40:00,
2013-03-22 00:45:00,55.9,52.4,29.81,South,180,0.0,-999.0,88,0.00,,,0.00,Wunderground v.1.15,2013-03-22 07:45:00,
2013-03-22 00:50:00,55.9,52.4,29.81,South,180,0.0,-999.0,88,0.00,,,0.00,Wunderground v.1.15,2013-03-22 07:50:00,
2013-03-22 00:55:00,55.5,52.0,29.81,N/A,-737280,0.0,-999.0,88,0.00,,,0.00,Wunderground v.1.15,2013-03-22 07:55:00,
2013-03-22 01:00:00,55.2,51.7,29.81,South,180,0.0,-999.0,88,0.00,,,0.01,Wunderground v.1.15,2013-03-22 08:00:00,
2013-03-22 01:05:00,55.2,51.7,29.81,South,180,0.0,-999.0,88,0.00,,,0.01,Wunderground v.1.15,2013-03-22 08:05:00,
2013-03-22 01:10:00,55.2,51.7,29.81,South,180,0.0,-999.0,88,0.00,,,0.01,Wunderground v.1.15,2013-03-22 08:10:00,
2013-03-22 01:15:00,54.8,51.3,29.81,South,180,0.0,-999.0,88,0.00,,,0.01,Wunderground v.1.15,2013-03-22 08:15:00,
2013-03-22 01:20:00,54.8,51.3,29.81,South,180,0.0,-999.0,88,0.00,,,0.01,Wunderground v.1.15,2013-03-22 08:20:00,
2013-03-22 01:25:00,54.5,51.0,29.81,South,180,0.0,-999.0,88,0.01,,,0.01,Wunderground v.1.15,2013-03-22 08:25:00,
2013-03-22 01:30:00,54.5,51.0,29.81,South,180,0.0,-999.0,88,0.01,,,0.01,Wunderground v.1.15,2013-03-22 08:30:00,
2013-03-22 01:35:00,54.7,51.5,29.81,N/A,-737280,0.0,-999.0,89,0.01,,,0.01,Wunderground v.1.15,2013-03-22 08:35:00,
2013-03-22 01:40:00,54.7,51.5,29.81,N/A,-737280,0.0,-999.0,89,0.01,,,0.01,Wunderground v.1.15,2013-03-22 08:40:00,
2013-03-22 01:45:00,55.2,52.0,29.81,South,180,0.0,-999.0,89,0.01,,,0.01,Wunderground v.1.15,2013-03-22 08:45:00,
2013-03-22 01:50:00,55.2,52.0,29.81,South,180,0.0,-999.0,89,0.01,,,0.01,Wunderground v.1.15,2013-03-22 08:50:00,
2013-03-22 01:55:00,55.9,52.7,29.81,South,180,2.0,-999.0,89,0.01,,,0.01,Wunderground v.1.15,2013-03-22 08:55:00,
2013-03-22 02:00:00,55.9,52.7,29.81,South,180,2.0,-999.0,89,0.01,,,0.01,Wunderground v.1.15,2013-03-22 09:00:00,
2013-03-22 02:05:00,56.4,53.2,29.81,South,180,2.0,-999.0,89,0.01,,,0.01,Wunderground v.1.15,2013-03-22 09:05:00,
2013-03-22 02:10:00,56.4,53.2,29.81,South,180,2.0,-999.0,89,0.01,,,0.01,Wunderground v.1.15,2013-03-22 09:10:00,
2013-03-22 02:15:00,56.5,53.0,29.82,South,180,1.0,-999.0,88,0.01,,,0.01,Wunderground v.1.15,2013-03-22 09:15:00,
2013-03-22 02:20:00,56.5,53.0,29.82,South,180,1.0,-999.0,88,0.01,,,0.01,Wunderground v.1.15,2013-03-22 09:20:00,
2013-03-22 02:25:00,56.7,53.5,29.82,South,180,0.0,-999.0,89,0.00,,,0.01,Wunderground v.1.15,2013-03-22 09:25:00,
2013-03-22 02:30:00,56.7,53.5,29.82,South,180,0.0,-999.0,89,0.00,,,0.01,Wunderground v.1.15,2013-03-22 09:30:00,
2013-03-22 02:35:00,56.6,53.4,29.82,South,180,0.0,-999.0,89,0.00,,,0.01,Wunderground v.1.15,2013-03-22 09:35:00,
2013-03-22 02:40:00,56.6,53.4,29.82,South,180,0.0,-999.0,89,0.00,,,0.01,Wunderground v.1.15,2013-03-22 09:40:00,
2013-03-22 02:45:00,56.4,52.9,29.81,SSE,158,1.0,-999.0,88,0.00,,,0.01,Wunderground v.1.15,2013-03-22 09:45:00,
2013-03-22 02:50:00,56.4,52.9,29.81,SSE,158,1.0,-999.0,88,0.00,,,0.01,Wunderground v.1.15,2013-03-22 09:50:00,
2013-03-22 02:55:00,56.2,53.0,29.81,ESE,113,0.0,-999.0,89,0.00,,,0.01,Wunderground v.1.15,2013-03-22 09:55:00,
2013-03-22 03:00:00,56.2,53.0,29.81,ESE,113,0.0,-999.0,89,0.00,,,0.01,Wunderground v.1.15,2013-03-22 10:00:00,
2013-03-22 03:05:00,56.0,52.8,29.81,ESE,113,0.0,-999.0,89,0.00,,,0.01,Wunderground v.1.15,2013-03-22 10:05:00,
2013-03-22 03:10:00,56.0,52.8,29.81,ESE,113,0.0,-999.0,89,0.00,,,0.01,Wunderground v.1.15,2013-03-22 10:10:00,
2013-03-22 03:15:00,55.8,52.3,29.81,SE,135,0.0,-999.0,88,0.00,,,0.01,Wunderground v.1.15,2013-03-22 10:15:00,
2013-03-22 03:20:00,55.8,52.3,29.81,SE,135,0.0,-999.0,88,0.00,,,0.01,Wunderground v.1.15,2013-03-22 10:20:00,
2013-03-22 03:25:00,55.6,52.4,29.81,SSE,158,1.0,-999.0,89,0.00,,,0.01,Wunderground v.1.15,2013-03-22 10:25:00,
2013-03-22 03:30:00,55.6,52.4,29.81,SSE,158,1.0,-999.0,89,0.00,,,0.01,Wunderground v.1.15,2013-03-22 10:30:00,
2013-03-22 03:35:00,55.6,52.1,29.81,East,90,1.0,-999.0,88,0.00,,,0.01,Wunderground v.1.15,2013-03-22 10:35:00,
2013-03-22 03:40:00,55.6,52.1,29.81,East,90,1.0,-999.0,88,0.00,,,0.01,Wunderground v.1.15,2013-03-22 10:40:00,
2013-03-22 03:45:00,55.6,52.1,29.81,East,90,0.0,-999.0,88,0.00,,,0.01,Wunderground v.1.15,2013-03-22 10:45:00,
2013-03-22 03:50:00,55.6,52.1,29.81,East,90,0.0,-999.0,88,0.00,,,0.01,Wunderground v.1.15,2013-03-22 10:50:00,
2013-03-22 03:55:00,55.4,51.9,29.81,East,90,0.0,-999.0,88,0.00,,,0.01,Wunderground v.1.15,2013-03-22 10:55:00,
2013-03-22 04:00:00,55.4,51.9,29.81,East,90,0.0,-999.0,88,0.00,,,0.01,Wunderground v.1.15,2013-03-22 11:00:00,
2013-03-22 04:05:00,55.3,51.8,29.81,East,90,0.0,-999.0,88,0.00,,,0.01,Wunderground v.1.15,2013-03-22 11:05:00,
2013-03-22 04:10:00,55.3,51.8,29.81,East,90,0.0,-999.0,88,0.00,,,0.01,Wunderground v.1.15,2013-03-22 11:10:00,
2013-03-22 04:15:00,55.1,51.6,29.81,East,90,0.0,-999.0,88,0.00,,,0.01,Wunderground v.1.15,2013-03-22 11:15:00,
2013-03-22 04:20:00,55.1,51.6,29.81,East,90,0.0,-999.0,88,0.00,,,0.01,Wunderground v.1.15,2013-03-22 11:20:00,
2013-03-22 04:25:00,54.9,51.4,29.81,N/A,-737280,0.0,-999.0,88,0.00,,,0.01,Wunderground v.1.15,2013-03-22 11:25:00,
2013-03-22 04:30:00,54.9,51.4,29.81,N/A,-737280,0.0,-999.0,88,0.00,,,0.01,Wunderground v.1.15,2013-03-22 11:30:00,
2013-03-22 04:35:00,54.6,51.1,29.80,N/A,-737280,0.0,-999.0,88,0.00,,,0.01,Wunderground v.1.15,2013-03-22 11:35:00,
2013-03-22 04:40:00,54.6,51.1,29.80,N/A,-737280,0.0,-999.0,88,0.00,,,0.01,Wunderground v.1.15,2013-03-22 11:40:00,
2013-03-22 04:45:00,54.4,50.9,29.80,N/A,-737280,0.0,-999.0,88,0.00,,,0.01,Wunderground v.1.15,2013-03-22 11:45:00,
2013-03-22 04:50:00,54.4,50.9,29.80,N/A,-737280,0.0,-999.0,88,0.00,,,0.01,Wunderground v.1.15,2013-03-22 11:50:00,
2013-03-22 04:55:00,54.1,50.6,29.80,East,90,0.0,-999.0,88,0.00,,,0.01,Wunderground v.1.15,2013-03-22 11:55:00,
2013-03-22 05:00:00,54.1,50.6,29.80,East,90,0.0,-999.0,88,0.00,,,0.01,Wunderground v.1.15,2013-03-22 12:00:00,
2013-03-22 05:05:00,53.9,50.4,29.80,East,90,0.0,-999.0,88,0.00,,,0.01,Wunderground v.1.15,2013-03-22 12:05:00,
2013-03-22 05:10:00,53.9,50.4,29.80,East,90,0.0,-999.0,88,0.00,,,0.01,Wunderground v.1.15,2013-03-22 12:10:00,
2013-03-22 05:15:00,53.5,50.0,29.81,N/A,-737280,0.0,-999.0,88,0.00,,,0.01,Wunderground v.1.15,2013-03-22 12:15:00,
2013-03-22 05:20:00,53.5,50.0,29.81,N/A,-737280,0.0,-999.0,88,0.00,,,0.01,Wunderground v.1.15,2013-03-22 12:20:00,
2013-03-22 05:25:00,53.1,49.6,29.81,N/A,-737280,0.0,-999.0,88,0.00,,,0.01,Wunderground v.1.15,2013-03-22 12:25:00,
2013-03-22 05:30:00,53.1,49.6,29.81,N/A,-737280,0.0,-999.0,88,0.00,,,0.01,Wunderground v.1.15,2013-03-22 12:30:00,
2013-03-22 05:35:00,52.8,49.3,29.81,N/A,-737280,0.0,-999.0,88,0.00,,,0.01,Wunderground v.1.15,2013-03-22 12:35:00,
2013-03-22 05:40:00,52.8,49.3,29.81,N/A,-737280,0.0,-999.0,88,0.00,,,0.01,Wunderground v.1.15,2013-03-22 12:40:00,
2013-03-22 05:45:00,52.4,49.3,29.81,N/A,-737280,0.0,-999.0,89,0.00,,,0.01,Wunderground v.1.15,2013-03-22 12:45:00,
2013-03-22 05:50:00,52.4,49.3,29.81,N/A,-737280,0.0,-999.0,89,0.00,,,0.01,Wunderground v.1.15,2013-03-22 12:50:00,
2013-03-22 05:55:00,52.1,49.0,29.82,N/A,-737280,0.0,-999.0,89,0.00,,,0.01,Wunderground v.1.15,2013-03-22 12:55:00,
2013-03-22 06:00:00,52.1,49.0,29.82,N/A,-737280,0.0,-999.0,89,0.00,,,0.01,Wunderground v.1.15,2013-03-22 13:00:00,
2013-03-22 06:05:00,52.0,48.9,29.82,N/A,-737280,0.0,-999.0,89,0.00,,,0.01,Wunderground v.1.15,2013-03-22 13:05:00,
2013-03-22 06:10:00,52.0,48.9,29.82,N/A,-737280,0.0,-999.0,89,0.00,,,0.01,Wunderground v.1.15,2013-03-22 13:10:00,
2013-03-22 06:15:00,52.4,49.6,29.82,East,90,0.0,-999.0,90,0.00,,,0.01,Wunderground v.1.15,2013-03-22 13:15:00,
2013-03-22 06:20:00,52.4,49.6,29.82,East,90,0.0,-999.0,90,0.00,,,0.01,Wunderground v.1.15,2013-03-22 13:20:00,
2013-03-22 06:25:00,52.9,50.0,29.83,N/A,-737280,0.0,-999.0,90,0.00,,,0.01,Wunderground v.1.15,2013-03-22 13:25:00,
2013-03-22 06:30:00,52.9,50.0,29.83,N/A,-737280,0.0,-999.0,90,0.00,,,0.01,Wunderground v.1.15,2013-03-22 13:30:00,
2013-03-22 06:35:00,53.3,50.4,29.83,N/A,-737280,0.0,-999.0,90,0.00,,,0.01,Wunderground v.1.15,2013-03-22 13:35:00,
2013-03-22 06:40:00,53.3,50.4,29.83,N/A,-737280,0.0,-999.0,90,0.00,,,0.01,Wunderground v.1.15,2013-03-22 13:40:00,
2013-03-22 06:45:00,53.7,50.8,29.83,East,90,0.0,-999.0,90,0.00,,,0.01,Wunderground v.1.15,2013-03-22 13:45:00,
2013-03-22 06:50:00,53.7,50.8,29.83,East,90,0.0,-999.0,90,0.00,,,0.01,Wunderground v.1.15,2013-03-22 13:50:00,
2013-03-22 06:55:00,53.9,50.7,29.83,East,90,0.0,-999.0,89,0.00,,,0.01,Wunderground v.1.15,2013-03-22 13:55:00,
2013-03-22 07:00:00,53.9,50.7,29.83,East,90,0.0,-999.0,89,0.00,,,0.01,Wunderground v.1.15,2013-03-22 14:00:00,
2013-03-22 07:05:00,54.1,51.2,29.84,East,90,0.0,-999.0,90,0.00,,,0.01,Wunderground v.1.15,2013-03-22 14:05:00,
2013-03-22 07:10:00,54.1,51.2,29.84,East,90,0.0,-999.0,90,0.00,,,0.01,Wunderground v.1.15,2013-03-22 14:10:00,
2013-03-22 07:15:00,54.3,51.1,29.84,East,90,0.0,-999.0,89,0.00,,,0.01,Wunderground v.1.15,2013-03-22 14:15:00,
2013-03-22 07:20:00,54.3,51.1,29.84,East,90,0.0,-999.0,89,0.00,,,0.01,Wunderground v.1.15,2013-03-22 14:20:00,
2013-03-22 07:25:00,54.5,51.3,29.84,East,90,0.0,-999.0,89,0.00,,,0.01,Wunderground v.1.15,2013-03-22 14:25:00,
2013-03-22 07:30:00,54.5,51.3,29.84,East,90,0.0,-999.0,89,0.00,,,0.01,Wunderground v.1.15,2013-03-22 14:30:00,
2013-03-22 07:35:00,55.0,51.8,29.84,East,90,0.0,-999.0,89,0.00,,,0.01,Wunderground v.1.15,2013-03-22 14:35:00,
2013-03-22 07:40:00,55.0,51.8,29.84,East,90,0.0,-999.0,89,0.00,,,0.01,Wunderground v.1.15,2013-03-22 14:40:00,
2013-03-22 07:45:00,55.5,52.3,29.84,East,90,1.0,-999.0,89,0.00,,,0.01,Wunderground v.1.15,2013-03-22 14:45:00,
2013-03-22 07:50:00,55.5,52.3,29.84,East,90,1.0,-999.0,89,0.00,,,0.01,Wunderground v.1.15,2013-03-22 14:50:00,
2013-03-22 07:55:00,55.9,52.4,29.85,East,90,2.0,-999.0,88,0.00,,,0.01,Wunderground v.1.15,2013-03-22 14:55:00,
2013-03-22 08:00:00,55.9,52.4,29.85,East,90,2.0,-999.0,88,0.00,,,0.01,Wunderground v.1.15,2013-03-22 15:00:00,
2013-03-22 08:05:00,56.4,52.6,29.86,East,90,1.0,-999.0,87,0.00,,,0.01,Wunderground v.1.15,2013-03-22 15:05:00,
2013-03-22 08:10:00,56.4,52.6,29.86,East,90,1.0,-999.0,87,0.00,,,0.01,Wunderground v.1.15,2013-03-22 15:10:00,
2013-03-22 08:15:00,57.0,53.2,29.86,East,90,1.0,-999.0,87,0.00,,,0.01,Wunderground v.1.15,2013-03-22 15:15:00,
2013-03-22 08:20:00,57.0,53.2,29.86,East,90,1.0,-999.0,87,0.00,,,0.01,Wunderground v.1.15,2013-03-22 15:20:00,
2013-03-22 08:25:00,57.7,53.5,29.86,East,90,1.0,-999.0,86,0.00,,,0.01,Wunderground v.1.15,2013-03-22 15:25:00,
2013-03-22 08:30:00,57.7,53.5,29.86,East,90,1.0,-999.0,86,0.00,,,0.01,Wunderground v.1.15,2013-03-22 15:30:00,
2013-03-22 08:35:00,57.9,53.4,29.87,East,90,1.0,-999.0,85,0.00,,,0.01,Wunderground v.1.15,2013-03-22 15:35:00,
2013-03-22 08:40:00,57.9,53.4,29.87,East,90,1.0,-999.0,85,0.00,,,0.01,Wunderground v.1.15,2013-03-22 15:40:00,
2013-03-22 08:45:00,58.1,53.6,29.87,East,90,0.0,-999.0,85,0.00,,,0.01,Wunderground v.1.15,2013-03-22 15:45:00,
2013-03-22 08:50:00,58.1,53.6,29.87,East,90,0.0,-999.0,85,0.00,,,0.01,Wunderground v.1.15,2013-03-22 15:50:00,
2013-03-22 08:55:00,58.2,53.7,29.87,East,90,0.0,-999.0,85,0.00,,,0.01,Wunderground v.1.15,2013-03-22 15:55:00,
2013-03-22 09:00:00,58.2,53.7,29.87,East,90,0.0,-999.0,85,0.00,,,0.01,Wunderground v.1.15,2013-03-22 16:00:00,
2013-03-22 09:05:00,58.4,53.6,29.88,East,90,1.0,-999.0,84,0.00,,,0.01,Wunderground v.1.15,2013-03-22 16:05:00,
2013-03-22 09:10:00,58.4,53.6,29.88,East,90,1.0,-999.0,84,0.00,,,0.01,Wunderground v.1.15,2013-03-22 16:10:00,
2013-03-22 09:15:00,58.9,54.1,29.88,East,90,0.0,-999.0,84,0.00,,,0.01,Wunderground v.1.15,2013-03-22 16:15:00,
2013-03-22 09:20:00,58.9,54.1,29.88,East,90,0.0,-999.0,84,0.00,,,0.01,Wunderground v.1.15,2013-03-22 16:20:00,
2013-03-22 09:25:00,59.5,54.3,29.88,East,90,0.0,-999.0,83,0.00,,,0.01,Wunderground v.1.15,2013-03-22 16:25:00,
2013-03-22 09:30:00,59.5,54.3,29.88,East,90,0.0,-999.0,83,0.00,,,0.01,Wunderground v.1.15,2013-03-22 16:30:00,
2013-03-22 09:35:00,60.5,54.3,29.88,SE,135,1.0,-999.0,80,0.00,,,0.01,Wunderground v.1.15,2013-03-22 16:35:00,
2013-03-22 09:40:00,60.5,54.3,29.88,SE,135,1.0,-999.0,80,0.00,,,0.01,Wunderground v.1.15,2013-03-22 16:40:00,
2013-03-22 09:45:00,60.9,54.0,29.88,SSE,158,0.0,-999.0,78,0.00,,,0.01,Wunderground v.1.15,2013-03-22 16:45:00,
2013-03-22 09:50:00,60.9,54.0,29.88,SSE,158,0.0,-999.0,78,0.00,,,0.01,Wunderground v.1.15,2013-03-22 16:50:00,
2013-03-22 09:55:00,60.9,54.0,29.88,East,90,1.0,-999.0,78,0.00,,,0.01,Wunderground v.1.15,2013-03-22 16:55:00,
2013-03-22 10:00:00,60.9,54.0,29.88,East,90,1.0,-999.0,78,0.00,,,0.01,Wunderground v.1.15,2013-03-22 17:00:00,
2013-03-22 10:05:00,60.8,53.5,29.88,East,90,1.0,-999.0,77,0.00,,,0.01,Wunderground v.1.15,2013-03-22 17:05:00,
2013-03-22 10:10:00,60.8,53.5,29.88,East,90,1.0,-999.0,77,0.00,,,0.01,Wunderground v.1.15,2013-03-22 17:10:00,
2013-03-22 10:15:00,61.1,53.8,29.87,East,90,0.0,-999.0,77,0.00,,,0.01,Wunderground v.1.15,2013-03-22 17:15:00,
2013-03-22 10:20:00,61.1,53.8,29.87,East,90,0.0,-999.0,77,0.00,,,0.01,Wunderground v.1.15,2013-03-22 17:20:00,
2013-03-22 10:25:00,61.6,54.0,29.86,East,90,1.0,-999.0,76,0.00,,,0.01,Wunderground v.1.15,2013-03-22 17:25:00,
2013-03-22 10:30:00,61.6,54.0,29.86,East,90,1.0,-999.0,76,0.00,,,0.01,Wunderground v.1.15,2013-03-22 17:30:00,
2013-03-22 10:35:00,62.6,54.6,29.87,SSE,158,1.0,-999.0,75,0.00,,,0.01,Wunderground v.1.15,2013-03-22 17:35:00,
2013-03-22 10:40:00,62.6,54.6,29.87,SSE,158,1.0,-999.0,75,0.00,,,0.01,Wunderground v.1.15,2013-03-22 17:40:00,
2013-03-22 10:45:00,63.8,54.6,29.87,East,90,1.0,-999.0,72,0.00,,,0.01,Wunderground v.1.15,2013-03-22 17:45:00,
2013-03-22 10:50:00,63.9,55.1,29.87,SE,136,1.0,1.0,73,0.00,,,0.01,Wunderground v.1.15,2013-03-22 17:50:00,
2013-03-22 10:55:00,64.2,55.4,29.87,ESE,104,1.0,1.0,73,0.00,,,0.00,Wunderground v.1.15,2013-03-22 17:55:00,
2013-03-22 11:00:00,64.5,54.9,29.87,WSW,240,1.0,2.0,71,0.00,,,0.00,Wunderground v.1.15,2013-03-22 18:00:00,
2013-03-22 11:05:00,64.2,54.6,29.87,SW,233,2.0,2.0,71,0.00,,,0.00,Wunderground v.1.15,2013-03-22 18:05:00,
2013-03-22 11:10:00,64.1,55.3,29.87,SW,227,2.0,5.0,73,0.00,,,0.00,Wunderground v.1.15,2013-03-22 18:10:00,
2013-03-22 11:15:00,64.0,55.2,29.87,SW,225,2.0,-999.0,73,0.00,,,0.01,Wunderground v.1.15,2013-03-22 18:15:00,
2013-03-22 11:20:00,63.9,55.1,29.87,WSW,239,2.0,2.0,73,0.00,,,0.00,Wunderground v.1.15,2013-03-22 18:20:00,
2013-03-22 11:25:00,63.6,55.2,29.87,West,270,3.0,-999.0,74,0.00,,,0.01,Wunderground v.1.15,2013-03-22 18:25:00,
2013-03-22 11:30:00,63.6,55.2,29.87,WSW,256,3.0,3.0,74,0.00,,,0.00,Wunderground v.1.15,2013-03-22 18:30:00,
2013-03-22 11:35:00,63.4,54.6,29.87,South,187,3.0,6.0,73,0.00,,,0.00,Wunderground v.1.15,2013-03-22 18:35:00,
2013-03-22 11:40:00,62.9,54.5,29.87,SSW,202,4.0,4.0,74,0.00,,,0.00,Wunderground v.1.15,2013-03-22 18:40:00,
2013-03-22 11:45:00,62.8,54.8,29.87,SW,236,4.0,4.0,75,0.00,,,0.00,Wunderground v.1.15,2013-03-22 18:45:00,
2013-03-22 11:50:00,63.0,54.9,29.87,WSW,247,3.0,8.0,75,0.00,,,0.00,Wunderground v.1.15,2013-03-22 18:50:00,
2013-03-22 11:55:00,63.1,54.7,29.87,WSW,238,4.0,8.0,74,0.00,,,0.00,Wunderground v.1.15,2013-03-22 18:55:00,
2013-03-22 12:00:00,63.8,55.0,29.87,SW,222,3.0,5.0,73,0.00,,,0.00,Wunderground v.1.15,2013-03-22 19:00:00,
2013-03-22 12:05:00,64.2,55.4,29.87,SW,218,3.0,5.0,73,0.00,,,0.00,Wunderground v.1.15,2013-03-22 19:05:00,
2013-03-22 12:10:00,64.3,55.5,29.87,SSW,192,3.0,5.0,73,0.00,,,0.00,Wunderground v.1.15,2013-03-22 19:10:00,
2013-03-22 12:15:00,65.4,55.4,29.87,SSW,203,3.0,-999.0,70,0.00,,,0.01,Wunderground v.1.15,2013-03-22 19:15:00,
2013-03-22 12:20:00,65.4,55.4,29.87,WSW,240,3.0,3.0,70,0.00,,,0.00,Wunderground v.1.15,2013-03-22 19:20:00,
2013-03-22 12:25:00,65.0,55.4,29.87,SSW,196,2.0,3.0,71,0.00,,,0.00,Wunderground v.1.15,2013-03-22 19:25:00,
2013-03-22 12:30:00,65.2,55.6,29.86,WSW,254,2.0,2.0,71,0.00,,,0.00,Wunderground v.1.15,2013-03-22 19:30:00,
2013-03-22 12:35:00,65.3,55.7,29.86,SW,231,3.0,5.0,71,0.00,,,0.00,Wunderground v.1.15,2013-03-22 19:35:00,
2013-03-22 12:40:00,65.3,55.3,29.86,SSW,203,3.0,4.0,70,0.00,,,0.00,Wunderground v.1.15,2013-03-22 19:40:00,
2013-03-22 12:45:00,65.6,55.2,29.86,SW,231,3.0,5.0,69,0.00,,,0.00,Wunderground v.1.15,2013-03-22 19:45:00,
2013-03-22 12:50:00,65.7,55.2,29.86,SSW,210,3.0,3.0,69,0.00,,,0.00,Wunderground v.1.15,2013-03-22 19:50:00,
2013-03-22 12:55:00,65.3,54.9,29.86,South,180,4.0,4.0,69,0.00,,,0.00,Wunderground v.1.15,2013-03-22 19:55:00,
2013-03-22 13:00:00,65.2,54.8,29.86,SW,225,4.0,-999.0,69,0.00,,,0.01,Wunderground v.1.15,2013-03-22 20:00:00,
2013-03-22 13:05:00,65.5,55.1,29.86,SW,236,3.0,4.0,69,0.00,,,0.00,Wunderground v.1.15,2013-03-22 20:05:00,
2013-03-22 13:10:00,65.6,54.8,29.86,SSW,203,3.0,-999.0,68,0.00,,,0.01,Wunderground v.1.15,2013-03-22 20:10:00,
2013-03-22 13:15:00,65.5,55.1,29.86,SW,225,3.0,-999.0,69,0.00,,,0.01,Wunderground v.1.15,2013-03-22 20:15:00,
2013-03-22 13:20:00,65.5,55.1,29.86,SW,224,3.0,3.0,69,0.00,,,0.00,Wunderground v.1.15,2013-03-22 20:20:00,
2013-03-22 13:25:00,65.9,55.0,29.86,SW,233,3.0,6.0,68,0.00,,,0.00,Wunderground v.1.15,2013-03-22 20:25:00,
2013-03-22 13:30:00,65.5,54.2,29.86,South,182,4.0,5.0,67,0.00,,,0.00,Wunderground v.1.15,2013-03-22 20:30:00,
2013-03-22 13:35:00,65.3,54.9,29.85,SW,225,5.0,-999.0,69,0.00,,,0.01,Wunderground v.1.15,2013-03-22 20:35:00,
2013-03-22 13:40:00,65.3,54.9,29.85,SW,219,5.0,5.0,69,0.00,,,0.00,Wunderground v.1.15,2013-03-22 20:40:00,
2013-03-22 13:45:00,65.4,54.6,29.85,SW,223,5.0,5.0,68,0.00,,,0.00,Wunderground v.1.15,2013-03-22 20:45:00,
2013-03-22 13:50:00,65.3,54.5,29.85,South,170,4.0,4.0,68,0.00,,,0.00,Wunderground v.1.15,2013-03-22 20:50:00,
2013-03-22 13:55:00,65.8,54.5,29.85,SSW,203,4.0,-999.0,67,0.00,,,0.01,Wunderground v.1.15,2013-03-22 20:55:00,
2013-03-22 14:00:00,65.7,54.4,29.85,SW,215,5.0,5.0,67,0.00,,,0.00,Wunderground v.1.15,2013-03-22 21:00:00,
2013-03-22 14:05:00,65.8,54.9,29.85,WSW,245,5.0,5.0,68,0.00,,,0.00,Wunderground v.1.15,2013-03-22 21:05:00,
2013-03-22 14:10:00,65.9,55.0,29.85,SW,221,5.0,5.0,68,0.00,,,0.00,Wunderground v.1.15,2013-03-22 21:10:00,
2013-03-22 14:15:00,65.9,55.0,29.85,SW,225,5.0,-999.0,68,0.00,,,0.01,Wunderground v.1.15,2013-03-22 21:15:00,
2013-03-22 14:20:00,65.9,55.0,29.85,SW,225,5.0,-999.0,68,0.00,,,0.01,Wunderground v.1.15,2013-03-22 21:20:00,
2013-03-22 14:25:00,65.8,53.7,29.84,SW,225,5.0,-999.0,65,0.00,,,0.01,Wunderground v.1.15,2013-03-22 21:25:00,
2013-03-22 14:30:00,65.8,53.7,29.84,SW,225,5.0,-999.0,65,0.00,,,0.01,Wunderground v.1.15,2013-03-22 21:30:00,
2013-03-22 14:35:00,65.9,53.8,29.84,SSW,203,5.0,-999.0,65,0.00,,,0.01,Wunderground v.1.15,2013-03-22 21:35:00,
2013-03-22 14:40:00,65.9,53.8,29.84,SSW,203,5.0,-999.0,65,0.00,,,0.01,Wunderground v.1.15,2013-03-22 21:40:00,
2013-03-22 14:45:00,66.2,54.5,29.84,South,180,5.0,-999.0,66,0.00,,,0.01,Wunderground v.1.15,2013-03-22 21:45:00,
2013-03-22 14:50:00,66.2,54.5,29.84,South,180,5.0,-999.0,66,0.00,,,0.01,Wunderground v.1.15,2013-03-22 21:50:00,
2013-03-22 14:55:00,65.9,54.6,29.83,SSW,203,6.0,-999.0,67,0.00,,,0.01,Wunderground v.1.15,2013-03-22 21:55:00,
2013-03-22 15:00:00,65.9,54.6,29.83,SSW,203,6.0,-999.0,67,0.00,,,0.01,Wunderground v.1.15,2013-03-22 22:00:00,
2013-03-22 15:05:00,65.7,54.4,29.83,SW,225,6.0,-999.0,67,0.00,,,0.01,Wunderground v.1.15,2013-03-22 22:05:00,
2013-03-22 15:10:00,65.7,54.4,29.83,SW,225,6.0,-999.0,67,0.00,,,0.01,Wunderground v.1.15,2013-03-22 22:10:00,
2013-03-22 15:15:00,65.6,55.2,29.83,SW,225,6.0,-999.0,69,0.00,,,0.01,Wunderground v.1.15,2013-03-22 22:15:00,
2013-03-22 15:20:00,65.6,55.2,29.83,SW,225,6.0,-999.0,69,0.00,,,0.01,Wunderground v.1.15,2013-03-22 22:20:00,
2013-03-22 15:25:00,65.6,55.5,29.83,SW,225,6.0,-999.0,70,0.00,,,0.01,Wunderground v.1.15,2013-03-22 22:25:00,
2013-03-22 15:30:00,65.6,55.5,29.83,SW,225,6.0,-999.0,70,0.00,,,0.01,Wunderground v.1.15,2013-03-22 22:30:00,
2013-03-22 15:35:00,65.0,55.8,29.83,SW,225,6.0,-999.0,72,0.00,,,0.01,Wunderground v.1.15,2013-03-22 22:35:00,
2013-03-22 15:40:00,65.0,55.8,29.83,SW,225,6.0,-999.0,72,0.00,,,0.01,Wunderground v.1.15,2013-03-22 22:40:00,
2013-03-22 15:45:00,64.5,56.0,29.83,SW,225,7.0,-999.0,74,0.00,,,0.01,Wunderground v.1.15,2013-03-22 22:45:00,
2013-03-22 15:50:00,64.5,56.0,29.83,SW,225,7.0,-999.0,74,0.00,,,0.01,Wunderground v.1.15,2013-03-22 22:50:00,
2013-03-22 15:55:00,64.8,56.3,29.83,SW,225,6.0,-999.0,74,0.00,,,0.01,Wunderground v.1.15,2013-03-22 22:55:00,
2013-03-22 16:00:00,64.8,56.3,29.83,SW,225,6.0,-999.0,74,0.00,,,0.01,Wunderground v.1.15,2013-03-22 23:00:00,
2013-03-22 16:05:00,65.3,56.4,29.83,SW,225,6.0,-999.0,73,0.00,,,0.01,Wunderground v.1.15,2013-03-22 23:05:00,
2013-03-22 16:10:00,65.3,56.4,29.83,SW,225,6.0,-999.0,73,0.00,,,0.01,Wunderground v.1.15,2013-03-22 23:10:00,
2013-03-22 16:15:00,65.5,56.6,29.82,SW,225,5.0,-999.0,73,0.00,,,0.01,Wunderground v.1.15,2013-03-22 23:15:00,
2013-03-22 16:20:00,65.5,56.6,29.82,SW,225,5.0,-999.0,73,0.00,,,0.01,Wunderground v.1.15,2013-03-22 23:20:00,
2013-03-22 16:25:00,66.2,57.3,29.82,SSW,203,4.0,-999.0,73,0.00,,,0.01,Wunderground v.1.15,2013-03-22 23:25:00,
2013-03-22 16:30:00,66.2,57.3,29.82,SSW,203,4.0,-999.0,73,0.00,,,0.01,Wunderground v.1.15,2013-03-22 23:30:00,
2013-03-22 16:35:00,66.8,56.3,29.82,SW,225,3.0,-999.0,69,0.00,,,0.01,Wunderground v.1.15,2013-03-22 23:35:00,
2013-03-22 16:40:00,66.8,56.3,29.82,SW,225,3.0,-999.0,69,0.00,,,0.01,Wunderground v.1.15,2013-03-22 23:40:00,
2013-03-22 16:45:00,67.4,56.5,29.82,SW,225,4.0,-999.0,68,0.00,,,0.01,Wunderground v.1.15,2013-03-22 23:45:00,
2013-03-22 16:50:00,67.4,56.5,29.82,SW,225,4.0,-999.0,68,0.00,,,0.01,Wunderground v.1.15,2013-03-22 23:50:00,
2013-03-22 16:55:00,67.1,57.0,29.82,SW,225,3.0,-999.0,70,0.00,,,0.01,Wunderground v.1.15,2013-03-22 23:55:00,
2013-03-22 17:00:00,67.1,57.0,29.82,SW,225,3.0,-999.0,70,0.00,,,0.01,Wunderground v.1.15,2013-03-23 00:00:00,
2013-03-22 17:05:00,67.0,56.5,29.82,SW,225,3.0,-999.0,69,0.00,,,0.01,Wunderground v.1.15,2013-03-23 00:05:00,
2013-03-22 17:10:00,67.0,56.5,29.82,SW,225,3.0,-999.0,69,0.00,,,0.01,Wunderground v.1.15,2013-03-23 00:10:00,
2013-03-22 17:15:00,66.5,55.6,29.82,SW,225,4.0,-999.0,68,0.00,,,0.01,Wunderground v.1.15,2013-03-23 00:15:00,
2013-03-22 17:20:00,66.5,55.6,29.82,SW,225,4.0,-999.0,68,0.00,,,0.01,Wunderground v.1.15,2013-03-23 00:20:00,
2013-03-22 17:25:00,65.5,56.2,29.82,SW,225,5.0,-999.0,72,0.00,,,0.01,Wunderground v.1.15,2013-03-23 00:25:00,
2013-03-22 17:30:00,65.5,56.2,29.82,SW,225,5.0,-999.0,72,0.00,,,0.01,Wunderground v.1.15,2013-03-23 00:30:00,
2013-03-22 17:35:00,64.3,56.2,29.82,SW,225,5.0,-999.0,75,0.00,,,0.01,Wunderground v.1.15,2013-03-23 00:35:00,
2013-03-22 17:40:00,64.3,56.2,29.82,SW,225,5.0,-999.0,75,0.00,,,0.01,Wunderground v.1.15,2013-03-23 00:40:00,
2013-03-22 17:45:00,63.8,56.1,29.82,SW,225,4.0,-999.0,76,0.00,,,0.01,Wunderground v.1.15,2013-03-23 00:45:00,
2013-03-22 17:50:00,63.8,56.1,29.82,SW,225,4.0,-999.0,76,0.00,,,0.01,Wunderground v.1.15,2013-03-23 00:50:00,
2013-03-22 17:55:00,62.9,55.9,29.82,SW,225,5.0,-999.0,78,0.00,,,0.01,Wunderground v.1.15,2013-03-23 00:55:00,
2013-03-22 18:00:00,62.9,55.9,29.82,SW,225,5.0,-999.0,78,0.00,,,0.01,Wunderground v.1.15,2013-03-23 01:00:00,
2013-03-22 18:05:00,62.4,55.8,29.83,SW,225,4.0,-999.0,79,0.00,,,0.01,Wunderground v.1.15,2013-03-23 01:05:00,
2013-03-22 18:10:00,62.4,55.8,29.83,SW,225,4.0,-999.0,79,0.00,,,0.01,Wunderground v.1.15,2013-03-23 01:10:00,
2013-03-22 18:15:00,61.8,55.6,29.82,SW,225,4.0,-999.0,80,0.00,,,0.01,Wunderground v.1.15,2013-03-23 01:15:00,
2013-03-22 18:20:00,61.8,55.6,29.82,SW,225,4.0,-999.0,80,0.00,,,0.01,Wunderground v.1.15,2013-03-23 01:20:00,
2013-03-22 18:25:00,61.5,55.6,29.83,SW,225,3.0,-999.0,81,0.00,,,0.01,Wunderground v.1.15,2013-03-23 01:25:00,
2013-03-22 18:30:00,61.5,55.6,29.83,SW,225,3.0,-999.0,81,0.00,,,0.01,Wunderground v.1.15,2013-03-23 01:30:00,
2013-03-22 18:35:00,61.0,55.5,29.83,SSW,203,4.0,-999.0,82,0.00,,,0.01,Wunderground v.1.15,2013-03-23 01:35:00,
2013-03-22 18:40:00,61.0,55.5,29.83,SSW,203,4.0,-999.0,82,0.00,,,0.01,Wunderground v.1.15,2013-03-23 01:40:00,
2013-03-22 18:45:00,60.6,55.4,29.83,SSW,203,3.0,-999.0,83,0.00,,,0.01,Wunderground v.1.15,2013-03-23 01:45:00,
2013-03-22 18:50:00,60.6,55.4,29.83,SSW,203,3.0,-999.0,83,0.00,,,0.01,Wunderground v.1.15,2013-03-23 01:50:00,
2013-03-22 18:55:00,60.4,55.2,29.83,SW,225,2.0,-999.0,83,0.00,,,0.01,Wunderground v.1.15,2013-03-23 01:55:00,
2013-03-22 19:00:00,60.4,55.2,29.83,SW,225,2.0,-999.0,83,0.00,,,0.01,Wunderground v.1.15,2013-03-23 02:00:00,
2013-03-22 19:05:00,60.2,55.3,29.83,SW,225,2.0,-999.0,84,0.00,,,0.01,Wunderground v.1.15,2013-03-23 02:05:00,
2013-03-22 19:10:00,60.2,55.3,29.83,SW,225,2.0,-999.0,84,0.00,,,0.01,Wunderground v.1.15,2013-03-23 02:10:00,
2013-03-22 19:15:00,59.8,55.0,29.83,SW,225,3.0,-999.0,84,0.00,,,0.01,Wunderground v.1.15,2013-03-23 02:15:00,
2013-03-22 19:20:00,59.8,55.0,29.83,SW,225,3.0,-999.0,84,0.00,,,0.01,Wunderground v.1.15,2013-03-23 02:20:00,
2013-03-22 19:25:00,59.5,55.0,29.84,South,180,1.0,-999.0,85,0.00,,,0.01,Wunderground v.1.15,2013-03-23 02:25:00,
2013-03-22 19:30:00,59.5,55.0,29.84,South,180,1.0,-999.0,85,0.00,,,0.01,Wunderground v.1.15,2013-03-23 02:30:00,
2013-03-22 19:35:00,59.3,54.8,29.84,SW,225,2.0,-999.0,85,0.00,,,0.01,Wunderground v.1.15,2013-03-23 02:35:00,
2013-03-22 19:40:00,59.3,54.8,29.84,SW,225,2.0,-999.0,85,0.00,,,0.01,Wunderground v.1.15,2013-03-23 02:40:00,
2013-03-22 19:45:00,59.2,55.0,29.84,SW,225,3.0,-999.0,86,0.00,,,0.01,Wunderground v.1.15,2013-03-23 02:45:00,
2013-03-22 19:50:00,59.2,55.0,29.84,SW,225,3.0,-999.0,86,0.00,,,0.01,Wunderground v.1.15,2013-03-23 02:50:00,
2013-03-22 19:55:00,59.1,54.9,29.85,SW,225,2.0,-999.0,86,0.00,,,0.01,Wunderground v.1.15,2013-03-23 02:55:00,
2013-03-22 20:00:00,59.1,54.9,29.85,SW,225,2.0,-999.0,86,0.00,,,0.01,Wunderground v.1.15,2013-03-23 03:00:00,
2013-03-22 20:05:00,59.0,54.8,29.86,SSW,203,0.0,-999.0,86,0.00,,,0.01,Wunderground v.1.15,2013-03-23 03:05:00,
2013-03-22 20:10:00,59.0,54.8,29.86,SSW,203,0.0,-999.0,86,0.00,,,0.01,Wunderground v.1.15,2013-03-23 03:10:00,
2013-03-22 20:15:00,58.8,54.6,29.86,SSW,203,1.0,-999.0,86,0.00,,,0.01,Wunderground v.1.15,2013-03-23 03:15:00,
2013-03-22 20:20:00,58.8,54.6,29.86,SSW,203,1.0,-999.0,86,0.00,,,0.01,Wunderground v.1.15,2013-03-23 03:20:00,
2013-03-22 20:25:00,58.6,54.4,29.86,SSW,203,1.0,-999.0,86,0.00,,,0.01,Wunderground v.1.15,2013-03-23 03:25:00,
2013-03-22 20:30:00,58.6,54.4,29.86,SSW,203,1.0,-999.0,86,0.00,,,0.01,Wunderground v.1.15,2013-03-23 03:30:00,
2013-03-22 20:35:00,58.4,54.2,29.87,SSW,203,2.0,-999.0,86,0.00,,,0.01,Wunderground v.1.15,2013-03-23 03:35:00,
2013-03-22 20:45:00,58.2,53.7,29.88,SSW,203,1.0,-999.0,85,0.00,,,0.01,Wunderground v.1.15,2013-03-23 03:45:00,
2013-03-22 20:50:00,58.2,53.7,29.88,SSW,203,1.0,-999.0,85,0.00,,,0.01,Wunderground v.1.15,2013-03-23 03:50:00,
2013-03-22 20:55:00,58.0,53.2,29.88,SSW,203,0.0,-999.0,84,0.00,,,0.01,Wunderground v.1.15,2013-03-23 03:55:00,
2013-03-22 21:00:00,58.0,53.2,29.88,SSW,203,0.0,-999.0,84,0.00,,,0.01,Wunderground v.1.15,2013-03-23 04:00:00,
2013-03-22 21:05:00,57.8,53.0,29.87,SSW,203,0.0,-999.0,84,0.00,,,0.01,Wunderground v.1.15,2013-03-23 04:05:00,
2013-03-22 21:10:00,57.8,53.0,29.87,SSW,203,0.0,-999.0,84,0.00,,,0.01,Wunderground v.1.15,2013-03-23 04:10:00,
2013-03-22 21:15:00,57.7,52.6,29.88,SSW,203,0.0,-999.0,83,0.00,,,0.01,Wunderground v.1.15,2013-03-23 04:15:00,
2013-03-22 21:20:00,57.7,52.6,29.88,SSW,203,0.0,-999.0,83,0.00,,,0.01,Wunderground v.1.15,2013-03-23 04:20:00,
2013-03-22 21:25:00,57.7,52.9,29.88,SSW,203,0.0,-999.0,84,0.00,,,0.01,Wunderground v.1.15,2013-03-23 04:25:00,
2013-03-22 21:30:00,57.7,52.9,29.88,SSW,203,0.0,-999.0,84,0.00,,,0.01,Wunderground v.1.15,2013-03-23 04:30:00,
2013-03-22 21:35:00,57.6,52.8,29.88,South,180,0.0,-999.0,84,0.00,,,0.01,Wunderground v.1.15,2013-03-23 04:35:00,
2013-03-22 21:40:00,57.6,52.8,29.88,South,180,0.0,-999.0,84,0.00,,,0.01,Wunderground v.1.15,2013-03-23 04:40:00,
2013-03-22 21:45:00,57.5,53.0,29.89,South,180,0.0,-999.0,85,0.00,,,0.01,Wunderground v.1.15,2013-03-23 04:45:00,
2013-03-22 21:50:00,57.5,53.0,29.89,South,180,0.0,-999.0,85,0.00,,,0.01,Wunderground v.1.15,2013-03-23 04:50:00,
2013-03-22 21:55:00,57.3,52.8,29.89,South,180,0.0,-999.0,85,0.00,,,0.01,Wunderground v.1.15,2013-03-23 04:55:00,
2013-03-22 22:00:00,57.3,52.8,29.89,South,180,0.0,-999.0,85,0.00,,,0.01,Wunderground v.1.15,2013-03-23 05:00:00,
2013-03-22 22:05:00,56.9,52.4,29.90,N/A,-737280,0.0,-999.0,85,0.00,,,0.01,Wunderground v.1.15,2013-03-23 05:05:00,
2013-03-22 22:10:00,56.9,52.4,29.90,N/A,-737280,0.0,-999.0,85,0.00,,,0.01,Wunderground v.1.15,2013-03-23 05:10:00,
2013-03-22 22:15:00,56.4,51.9,29.91,N/A,-737280,0.0,-999.0,85,0.00,,,0.01,Wunderground v.1.15,2013-03-23 05:15:00,
2013-03-22 22:20:00,56.4,51.9,29.91,N/A,-737280,0.0,-999.0,85,0.00,,,0.01,Wunderground v.1.15,2013-03-23 05:20:00,
2013-03-22 22:25:00,55.7,51.3,29.90,N/A,-737280,0.0,-999.0,85,0.00,,,0.01,Wunderground v.1.15,2013-03-23 05:25:00,
2013-03-22 22:30:00,55.7,51.3,29.90,N/A,-737280,0.0,-999.0,85,0.00,,,0.01,Wunderground v.1.15,2013-03-23 05:30:00,
2013-03-22 22:35:00,55.4,51.3,29.90,N/A,-737280,0.0,-999.0,86,0.00,,,0.01,Wunderground v.1.15,2013-03-23 05:35:00,
2013-03-22 22:40:00,55.4,51.3,29.90,N/A,-737280,0.0,-999.0,86,0.00,,,0.01,Wunderground v.1.15,2013-03-23 05:40:00,
2013-03-22 22:45:00,54.9,50.8,29.90,N/A,-737280,0.0,-999.0,86,0.00,,,0.01,Wunderground v.1.15,2013-03-23 05:45:00,
2013-03-22 22:50:00,54.9,50.8,29.90,N/A,-737280,0.0,-999.0,86,0.00,,,0.01,Wunderground v.1.15,2013-03-23 05:50:00,
2013-03-22 22:55:00,54.6,50.8,29.90,N/A,-737280,0.0,-999.0,87,0.00,,,0.01,Wunderground v.1.15,2013-03-23 05:55:00,
2013-03-22 23:00:00,54.6,50.8,29.90,N/A,-737280,0.0,-999.0,87,0.00,,,0.01,Wunderground v.1.15,2013-03-23 06:00:00,
2013-03-22 23:05:00,54.6,50.8,29.90,N/A,-737280,0.0,-999.0,87,0.00,,,0.01,Wunderground v.1.15,2013-03-23 06:05:00,
2013-03-22 23:10:00,54.6,50.8,29.90,N/A,-737280,0.0,-999.0,87,0.00,,,0.01,Wunderground v.1.15,2013-03-23 06:10:00,
2013-03-22 23:15:00,54.5,50.7,29.90,South,180,0.0,-999.0,87,0.00,,,0.01,Wunderground v.1.15,2013-03-23 06:15:00,
2013-03-22 23:20:00,54.5,50.7,29.90,South,180,0.0,-999.0,87,0.00,,,0.01,Wunderground v.1.15,2013-03-23 06:20:00,
2013-03-22 23:25:00,55.0,51.5,29.90,South,180,0.0,-999.0,88,0.00,,,0.01,Wunderground v.1.15,2013-03-23 06:25:00,
2013-03-22 23:30:00,55.0,51.5,29.90,South,180,0.0,-999.0,88,0.00,,,0.01,Wunderground v.1.15,2013-03-23 06:30:00,
2013-03-22 23:35:00,55.0,51.5,29.90,N/A,-737280,0.0,-999.0,88,0.00,,,0.01,Wunderground v.1.15,2013-03-23 06:35:00,
2013-03-22 23:40:00,55.0,51.5,29.90,N/A,-737280,0.0,-999.0,88,0.00,,,0.01,Wunderground v.1.15,2013-03-23 06:40:00,
2013-03-22 23:45:00,55.6,52.4,29.90,South,180,0.0,-999.0,89,0.00,,,0.01,Wunderground v.1.15,2013-03-23 06:45:00,
2013-03-22 23:50:00,55.6,52.4,29.90,South,180,0.0,-999.0,89,0.00,,,0.01,Wunderground v.1.15,2013-03-23 06:50:00,
2013-03-22 23:55:00,56.3,53.1,29.91,South,180,1.0,-999.0,89,0.00,,,0.01,Wunderground v.1.15,2013-03-23 06:55:00,